sensor_id;sensor_type;location;lat;lon;timestamp;temperature;humidity
4795;DHT22;2411;47.060;15.064;2023-03-23T00:00:17;7.50;1.00
4795;DHT22;2411;47.060;15.064;2023-03-23T00:02:43;7.30;1.00
4795;DHT22;2411;47.060;15.064;2023-03-23T00:05:09;7.10;1.00
4795;DHT22;2411;47.060;15.064;2023-03-23T00:07:35;6.90;1.00
4795;DHT22;2411;47.060;15.064;2023-03-23T00:10:02;6.90;1.00
4795;DHT22;2411;47.060;15.064;2023-03-23T00:12:30;6.90;1.00
4795;DHT22;2411;47.060;15.064;2023-03-23T00:15:08;7.10;1.00
4795;DHT22;2411;47.060;15.064;2023-03-23T00:17:39;7.10;1.00
4795;DHT22;2411;47.060;15.064;2023-03-23T00:20:07;6.80;1.00
4795;DHT22;2411;47.060;15.064;2023-03-23T00:22:34;6.60;1.00
4795;DHT22;2411;47.060;15.064;2023-03-23T00:25:07;6.50;1.00
4795;DHT22;2411;47.060;15.064;2023-03-23T00:27:34;6.50;1.00
4795;DHT22;2411;47.060;15.064;2023-03-23T00:30:00;6.60;1.00
4795;DHT22;2411;47.060;15.064;2023-03-23T00:32:26;6.70;1.00
4795;DHT22;2411;47.060;15.064;2023-03-23T00:34:57;6.80;1.00
4795;DHT22;2411;47.060;15.064;2023-03-23T00:37:27;6.70;1.00
4795;DHT22;2411;47.060;15.064;2023-03-23T00:39:53;6.70;1.00
4795;DHT22;2411;47.060;15.064;2023-03-23T00:42:23;6.60;1.00
4795;DHT22;2411;47.060;15.064;2023-03-23T00:44:50;6.50;1.00
4795;DHT22;2411;47.060;15.064;2023-03-23T00:47:16;6.60;1.00
4795;DHT22;2411;47.060;15.064;2023-03-23T00:49:43;6.60;1.00
4795;DHT22;2411;47.060;15.064;2023-03-23T00:52:09;6.60;1.00
4795;DHT22;2411;47.060;15.064;2023-03-23T00:54:36;6.60;1.00
4795;DHT22;2411;47.060;15.064;2023-03-23T00:57:04;6.50;1.00
4795;DHT22;2411;47.060;15.064;2023-03-23T00:59:30;6.30;1.00
4795;DHT22;2411;47.060;15.064;2023-03-23T01:01:56;6.30;1.00
4795;DHT22;2411;47.060;15.064;2023-03-23T01:04:22;6.10;1.00
4795;DHT22;2411;47.060;15.064;2023-03-23T01:06:50;6.00;1.00
4795;DHT22;2411;47.060;15.064;2023-03-23T01:09:18;6.10;1.00
4795;DHT22;2411;47.060;15.064;2023-03-23T01:11:48;6.10;1.00
4795;DHT22;2411;47.060;15.064;2023-03-23T01:14:16;6.20;1.00
4795;DHT22;2411;47.060;15.064;2023-03-23T01:16:42;6.30;1.00
4795;DHT22;2411;47.060;15.064;2023-03-23T01:19:08;6.30;1.00
4795;DHT22;2411;47.060;15.064;2023-03-23T01:21:35;6.40;1.00
4795;DHT22;2411;47.060;15.064;2023-03-23T01:24:02;6.50;1.00
4795;DHT22;2411;47.060;15.064;2023-03-23T01:26:28;6.40;1.00
4795;DHT22;2411;47.060;15.064;2023-03-23T01:28:55;6.20;1.00
4795;DHT22;2411;47.060;15.064;2023-03-23T01:31:23;6.10;1.00
4795;DHT22;2411;47.060;15.064;2023-03-23T01:33:50;5.90;1.00
4795;DHT22;2411;47.060;15.064;2023-03-23T01:36:19;5.90;1.00
4795;DHT22;2411;47.060;15.064;2023-03-23T01:38:48;5.90;1.00
4795;DHT22;2411;47.060;15.064;2023-03-23T01:41:15;6.10;1.00
4795;DHT22;2411;47.060;15.064;2023-03-23T01:46:34;6.40;1.00
4795;DHT22;2411;47.060;15.064;2023-03-23T01:49:27;6.60;1.00
4795;DHT22;2411;47.060;15.064;2023-03-23T01:52:03;6.70;1.00
4795;DHT22;2411;47.060;15.064;2023-03-23T01:54:30;6.60;1.00
4795;DHT22;2411;47.060;15.064;2023-03-23T01:57:04;6.30;1.00
4795;DHT22;2411;47.060;15.064;2023-03-23T01:59:34;6.30;1.00
4795;DHT22;2411;47.060;15.064;2023-03-23T02:02:01;6.10;1.00
4795;DHT22;2411;47.060;15.064;2023-03-23T02:04:29;6.10;1.00
4795;DHT22;2411;47.060;15.064;2023-03-23T02:06:56;6.10;1.00
4795;DHT22;2411;47.060;15.064;2023-03-23T02:09:26;6.20;1.00
4795;DHT22;2411;47.060;15.064;2023-03-23T02:11:53;6.10;1.00
4795;DHT22;2411;47.060;15.064;2023-03-23T02:14:21;6.20;1.00
4795;DHT22;2411;47.060;15.064;2023-03-23T02:39:16;5.90;1.00
4795;DHT22;2411;47.060;15.064;2023-03-23T02:42:04;5.80;1.00
4795;DHT22;2411;47.060;15.064;2023-03-23T02:44:32;5.60;1.00
4795;DHT22;2411;47.060;15.064;2023-03-23T02:47:00;5.40;1.00
4795;DHT22;2411;47.060;15.064;2023-03-23T02:49:32;5.40;1.00
4795;DHT22;2411;47.060;15.064;2023-03-23T02:52:00;5.40;1.00
4795;DHT22;2411;47.060;15.064;2023-03-23T02:54:27;5.50;1.00
4795;DHT22;2411;47.060;15.064;2023-03-23T02:56:54;5.50;1.00
4795;DHT22;2411;47.060;15.064;2023-03-23T02:59:21;5.50;1.00
4795;DHT22;2411;47.060;15.064;2023-03-23T03:02:16;5.40;1.00
4795;DHT22;2411;47.060;15.064;2023-03-23T03:04:41;5.50;1.00
4795;DHT22;2411;47.060;15.064;2023-03-23T03:10:03;5.80;1.00
4795;DHT22;2411;47.060;15.064;2023-03-23T03:15:22;6.10;1.00
4795;DHT22;2411;47.060;15.064;2023-03-23T03:17:56;6.30;1.00
4795;DHT22;2411;47.060;15.064;2023-03-23T03:20:25;6.40;1.00
4795;DHT22;2411;47.060;15.064;2023-03-23T03:22:53;6.30;1.00
4795;DHT22;2411;47.060;15.064;2023-03-23T03:25:19;6.40;1.00
4795;DHT22;2411;47.060;15.064;2023-03-23T03:27:47;6.50;1.00
4795;DHT22;2411;47.060;15.064;2023-03-23T03:30:19;6.40;1.00
4795;DHT22;2411;47.060;15.064;2023-03-23T03:32:52;6.30;1.00
4795;DHT22;2411;47.060;15.064;2023-03-23T03:35:21;6.40;1.00
4795;DHT22;2411;47.060;15.064;2023-03-23T03:37:48;6.40;1.00
4795;DHT22;2411;47.060;15.064;2023-03-23T03:40:17;6.30;1.00
4795;DHT22;2411;47.060;15.064;2023-03-23T03:42:45;6.20;1.00
4795;DHT22;2411;47.060;15.064;2023-03-23T03:45:14;6.00;1.00
4795;DHT22;2411;47.060;15.064;2023-03-23T03:47:40;5.90;1.00
4795;DHT22;2411;47.060;15.064;2023-03-23T03:50:06;5.60;1.00
4795;DHT22;2411;47.060;15.064;2023-03-23T03:52:33;5.30;1.00
4795;DHT22;2411;47.060;15.064;2023-03-23T03:55:00;5.10;1.00
4795;DHT22;2411;47.060;15.064;2023-03-23T03:57:26;4.90;1.00
4795;DHT22;2411;47.060;15.064;2023-03-23T03:59:52;5.00;1.00
4795;DHT22;2411;47.060;15.064;2023-03-23T04:02:18;5.20;1.00
4795;DHT22;2411;47.060;15.064;2023-03-23T04:04:49;5.40;1.00
4795;DHT22;2411;47.060;15.064;2023-03-23T04:07:17;5.50;1.00
4795;DHT22;2411;47.060;15.064;2023-03-23T04:09:45;5.80;1.00
4795;DHT22;2411;47.060;15.064;2023-03-23T04:12:15;5.70;1.00
4795;DHT22;2411;47.060;15.064;2023-03-23T04:14:41;5.50;1.00
4795;DHT22;2411;47.060;15.064;2023-03-23T04:17:08;5.30;1.00
4795;DHT22;2411;47.060;15.064;2023-03-23T04:19:37;5.30;1.00
4795;DHT22;2411;47.060;15.064;2023-03-23T04:22:04;5.20;1.00
4795;DHT22;2411;47.060;15.064;2023-03-23T04:24:31;5.30;1.00
4795;DHT22;2411;47.060;15.064;2023-03-23T04:26:59;5.30;1.00
4795;DHT22;2411;47.060;15.064;2023-03-23T04:29:26;5.40;1.00
4795;DHT22;2411;47.060;15.064;2023-03-23T04:31:52;5.50;1.00
4795;DHT22;2411;47.060;15.064;2023-03-23T04:34:19;5.60;1.00
4795;DHT22;2411;47.060;15.064;2023-03-23T04:36:45;5.60;1.00
4795;DHT22;2411;47.060;15.064;2023-03-23T04:39:12;5.50;1.00
4795;DHT22;2411;47.060;15.064;2023-03-23T04:41:39;5.60;1.00
4795;DHT22;2411;47.060;15.064;2023-03-23T04:44:06;5.60;1.00
4795;DHT22;2411;47.060;15.064;2023-03-23T04:46:33;5.70;1.00
4795;DHT22;2411;47.060;15.064;2023-03-23T04:48:59;5.70;1.00
4795;DHT22;2411;47.060;15.064;2023-03-23T04:51:26;5.60;1.00
4795;DHT22;2411;47.060;15.064;2023-03-23T04:53:53;5.60;1.00
4795;DHT22;2411;47.060;15.064;2023-03-23T04:56:19;5.60;1.00
4795;DHT22;2411;47.060;15.064;2023-03-23T04:58:46;5.60;1.00
4795;DHT22;2411;47.060;15.064;2023-03-23T05:01:13;5.60;1.00
4795;DHT22;2411;47.060;15.064;2023-03-23T05:03:44;5.60;1.00
4795;DHT22;2411;47.060;15.064;2023-03-23T05:06:10;5.90;1.00
4795;DHT22;2411;47.060;15.064;2023-03-23T05:08:36;6.00;1.00
4795;DHT22;2411;47.060;15.064;2023-03-23T05:11:06;5.90;1.00
4795;DHT22;2411;47.060;15.064;2023-03-23T05:13:32;5.90;1.00
4795;DHT22;2411;47.060;15.064;2023-03-23T05:16:02;5.70;1.00
4795;DHT22;2411;47.060;15.064;2023-03-23T05:18:28;5.60;1.00
4795;DHT22;2411;47.060;15.064;2023-03-23T05:20:54;5.60;1.00
4795;DHT22;2411;47.060;15.064;2023-03-23T05:23:20;5.50;1.00
4795;DHT22;2411;47.060;15.064;2023-03-23T05:25:54;5.40;1.00
4795;DHT22;2411;47.060;15.064;2023-03-23T05:28:21;5.40;1.00
4795;DHT22;2411;47.060;15.064;2023-03-23T05:30:48;5.40;1.00
4795;DHT22;2411;47.060;15.064;2023-03-23T05:33:14;5.60;1.00
4795;DHT22;2411;47.060;15.064;2023-03-23T05:35:40;5.60;1.00
4795;DHT22;2411;47.060;15.064;2023-03-23T05:38:07;5.50;1.00
4795;DHT22;2411;47.060;15.064;2023-03-23T05:40:33;5.40;1.00
4795;DHT22;2411;47.060;15.064;2023-03-23T05:42:59;5.30;1.00
4795;DHT22;2411;47.060;15.064;2023-03-23T05:45:26;5.20;1.00
4795;DHT22;2411;47.060;15.064;2023-03-23T05:47:52;5.20;1.00
4795;DHT22;2411;47.060;15.064;2023-03-23T05:50:18;5.30;1.00
4795;DHT22;2411;47.060;15.064;2023-03-23T05:52:44;5.40;1.00
4795;DHT22;2411;47.060;15.064;2023-03-23T05:55:11;5.50;1.00
4795;DHT22;2411;47.060;15.064;2023-03-23T05:57:38;5.70;1.00
4795;DHT22;2411;47.060;15.064;2023-03-23T06:00:05;5.80;1.00
4795;DHT22;2411;47.060;15.064;2023-03-23T06:02:45;5.90;1.00
4795;DHT22;2411;47.060;15.064;2023-03-23T06:05:11;6.10;1.00
4795;DHT22;2411;47.060;15.064;2023-03-23T06:07:37;6.30;1.00
4795;DHT22;2411;47.060;15.064;2023-03-23T06:10:05;6.40;1.00
4795;DHT22;2411;47.060;15.064;2023-03-23T06:12:32;6.50;1.00
4795;DHT22;2411;47.060;15.064;2023-03-23T06:14:58;6.70;1.00
4795;DHT22;2411;47.060;15.064;2023-03-23T06:17:24;6.80;1.00
4795;DHT22;2411;47.060;15.064;2023-03-23T06:19:51;6.90;1.00
4795;DHT22;2411;47.060;15.064;2023-03-23T06:22:17;7.10;1.00
4795;DHT22;2411;47.060;15.064;2023-03-23T06:24:44;7.20;1.00
4795;DHT22;2411;47.060;15.064;2023-03-23T06:27:10;7.30;1.00
4795;DHT22;2411;47.060;15.064;2023-03-23T06:29:37;7.40;1.00
4795;DHT22;2411;47.060;15.064;2023-03-23T06:32:04;7.50;1.00
4795;DHT22;2411;47.060;15.064;2023-03-23T06:34:31;7.40;1.00
4795;DHT22;2411;47.060;15.064;2023-03-23T06:36:58;7.50;1.00
4795;DHT22;2411;47.060;15.064;2023-03-23T06:39:24;7.70;1.00
4795;DHT22;2411;47.060;15.064;2023-03-23T06:41:51;7.90;1.00
4795;DHT22;2411;47.060;15.064;2023-03-23T06:44:17;8.30;1.00
4795;DHT22;2411;47.060;15.064;2023-03-23T06:46:43;8.50;1.00
4795;DHT22;2411;47.060;15.064;2023-03-23T06:49:10;8.70;1.00
4795;DHT22;2411;47.060;15.064;2023-03-23T06:51:36;8.90;1.00
4795;DHT22;2411;47.060;15.064;2023-03-23T06:54:04;9.20;1.00
4795;DHT22;2411;47.060;15.064;2023-03-23T06:56:30;9.30;1.00
4795;DHT22;2411;47.060;15.064;2023-03-23T06:58:57;9.50;1.00
4795;DHT22;2411;47.060;15.064;2023-03-23T07:01:23;9.70;1.00
4795;DHT22;2411;47.060;15.064;2023-03-23T07:03:49;9.90;1.00
4795;DHT22;2411;47.060;15.064;2023-03-23T07:06:15;10.00;1.00
4795;DHT22;2411;47.060;15.064;2023-03-23T07:08:42;10.10;1.00
4795;DHT22;2411;47.060;15.064;2023-03-23T07:11:08;10.10;1.00
4795;DHT22;2411;47.060;15.064;2023-03-23T07:13:36;10.40;1.00
4795;DHT22;2411;47.060;15.064;2023-03-23T07:16:05;10.60;1.00
4795;DHT22;2411;47.060;15.064;2023-03-23T07:18:32;10.70;1.00
4795;DHT22;2411;47.060;15.064;2023-03-23T07:20:58;10.80;1.00
4795;DHT22;2411;47.060;15.064;2023-03-23T07:23:25;10.90;1.00
4795;DHT22;2411;47.060;15.064;2023-03-23T07:25:51;11.00;1.00
4795;DHT22;2411;47.060;15.064;2023-03-23T07:28:18;11.20;1.00
4795;DHT22;2411;47.060;15.064;2023-03-23T07:30:44;11.30;1.00
4795;DHT22;2411;47.060;15.064;2023-03-23T07:33:10;11.40;1.00
4795;DHT22;2411;47.060;15.064;2023-03-23T07:35:37;11.50;1.00
4795;DHT22;2411;47.060;15.064;2023-03-23T07:38:05;11.70;1.00
4795;DHT22;2411;47.060;15.064;2023-03-23T07:40:32;11.90;1.00
4795;DHT22;2411;47.060;15.064;2023-03-23T07:42:59;11.90;1.00
4795;DHT22;2411;47.060;15.064;2023-03-23T07:45:26;12.00;1.00
4795;DHT22;2411;47.060;15.064;2023-03-23T07:47:52;12.10;1.00
4795;DHT22;2411;47.060;15.064;2023-03-23T07:50:19;12.20;1.00
4795;DHT22;2411;47.060;15.064;2023-03-23T07:52:51;12.20;1.00
4795;DHT22;2411;47.060;15.064;2023-03-23T07:55:19;12.20;1.00
4795;DHT22;2411;47.060;15.064;2023-03-23T07:57:47;12.30;1.00
4795;DHT22;2411;47.060;15.064;2023-03-23T08:00:15;12.50;1.00
4795;DHT22;2411;47.060;15.064;2023-03-23T08:02:48;12.60;1.00
4795;DHT22;2411;47.060;15.064;2023-03-23T08:05:16;12.70;1.00
4795;DHT22;2411;47.060;15.064;2023-03-23T08:07:44;13.00;1.00
4795;DHT22;2411;47.060;15.064;2023-03-23T08:10:12;13.20;1.00
4795;DHT22;2411;47.060;15.064;2023-03-23T08:12:42;13.20;1.00
4795;DHT22;2411;47.060;15.064;2023-03-23T08:15:10;13.20;1.00
4795;DHT22;2411;47.060;15.064;2023-03-23T08:17:40;13.40;1.00
4795;DHT22;2411;47.060;15.064;2023-03-23T08:20:08;13.70;1.00
4795;DHT22;2411;47.060;15.064;2023-03-23T08:23:00;13.80;1.00
4795;DHT22;2411;47.060;15.064;2023-03-23T08:25:25;13.90;1.00
4795;DHT22;2411;47.060;15.064;2023-03-23T08:27:53;13.90;1.00
4795;DHT22;2411;47.060;15.064;2023-03-23T08:30:20;14.20;1.00
4795;DHT22;2411;47.060;15.064;2023-03-23T08:32:48;14.40;1.00
4795;DHT22;2411;47.060;15.064;2023-03-23T08:35:15;14.40;1.00
4795;DHT22;2411;47.060;15.064;2023-03-23T08:37:42;14.70;1.00
4795;DHT22;2411;47.060;15.064;2023-03-23T08:40:10;14.80;1.00
4795;DHT22;2411;47.060;15.064;2023-03-23T08:42:38;15.00;1.00
4795;DHT22;2411;47.060;15.064;2023-03-23T08:45:05;15.00;1.00
4795;DHT22;2411;47.060;15.064;2023-03-23T08:47:34;15.10;1.00
4795;DHT22;2411;47.060;15.064;2023-03-23T08:50:02;15.20;1.00
4795;DHT22;2411;47.060;15.064;2023-03-23T08:52:29;15.30;1.00
4795;DHT22;2411;47.060;15.064;2023-03-23T08:54:55;15.20;1.00
4795;DHT22;2411;47.060;15.064;2023-03-23T08:57:26;15.20;1.00
4795;DHT22;2411;47.060;15.064;2023-03-23T08:59:52;15.20;1.00
4795;DHT22;2411;47.060;15.064;2023-03-23T09:02:20;15.10;1.00
4795;DHT22;2411;47.060;15.064;2023-03-23T09:04:46;14.90;1.00
4795;DHT22;2411;47.060;15.064;2023-03-23T09:07:13;15.10;1.00
4795;DHT22;2411;47.060;15.064;2023-03-23T09:09:40;15.10;1.00
4795;DHT22;2411;47.060;15.064;2023-03-23T09:12:09;15.20;1.00
4795;DHT22;2411;47.060;15.064;2023-03-23T09:14:37;15.20;1.00
4795;DHT22;2411;47.060;15.064;2023-03-23T09:17:04;15.30;1.00
4795;DHT22;2411;47.060;15.064;2023-03-23T09:19:32;15.30;1.00
4795;DHT22;2411;47.060;15.064;2023-03-23T09:21:59;15.20;1.00
4795;DHT22;2411;47.060;15.064;2023-03-23T09:24:26;15.50;1.00
4795;DHT22;2411;47.060;15.064;2023-03-23T09:26:52;15.60;1.00
4795;DHT22;2411;47.060;15.064;2023-03-23T09:29:18;15.60;1.00
4795;DHT22;2411;47.060;15.064;2023-03-23T09:31:47;15.90;1.00
4795;DHT22;2411;47.060;15.064;2023-03-23T09:34:14;16.10;1.00
4795;DHT22;2411;47.060;15.064;2023-03-23T09:36:44;16.30;1.00
4795;DHT22;2411;47.060;15.064;2023-03-23T09:39:11;16.30;1.00
4795;DHT22;2411;47.060;15.064;2023-03-23T09:44:30;16.20;1.00
4795;DHT22;2411;47.060;15.064;2023-03-23T09:47:33;16.10;1.00
4795;DHT22;2411;47.060;15.064;2023-03-23T09:50:14;16.00;1.00
4795;DHT22;2411;47.060;15.064;2023-03-23T09:55:28;16.20;1.00
4795;DHT22;2411;47.060;15.064;2023-03-23T10:00:41;16.40;1.00
4795;DHT22;2411;47.060;15.064;2023-03-23T10:03:34;16.40;1.00
4795;DHT22;2411;47.060;15.064;2023-03-23T10:06:03;16.70;1.00
4795;DHT22;2411;47.060;15.064;2023-03-23T10:08:31;16.90;1.00
4795;DHT22;2411;47.060;15.064;2023-03-23T10:11:13;17.00;1.00
4795;DHT22;2411;47.060;15.064;2023-03-23T10:16:47;17.10;1.00
4795;DHT22;2411;47.060;15.064;2023-03-23T10:19:29;17.30;1.00
4795;DHT22;2411;47.060;15.064;2023-03-23T10:22:04;17.40;1.00
4795;DHT22;2411;47.060;15.064;2023-03-23T10:24:43;17.60;1.00
4795;DHT22;2411;47.060;15.064;2023-03-23T10:27:38;17.70;1.00
4795;DHT22;2411;47.060;15.064;2023-03-23T10:30:17;17.80;1.00
4795;DHT22;2411;47.060;15.064;2023-03-23T10:33:13;18.00;1.00
4795;DHT22;2411;47.060;15.064;2023-03-23T10:38:29;18.10;1.00
4795;DHT22;2411;47.060;15.064;2023-03-23T10:41:05;18.10;1.00
4795;DHT22;2411;47.060;15.064;2023-03-23T10:43:32;18.00;1.00
4795;DHT22;2411;47.060;15.064;2023-03-23T10:46:05;18.20;1.00
4795;DHT22;2411;47.060;15.064;2023-03-23T10:48:37;18.20;1.00
4795;DHT22;2411;47.060;15.064;2023-03-23T10:51:10;18.00;1.00
4795;DHT22;2411;47.060;15.064;2023-03-23T10:53:42;18.00;1.00
4795;DHT22;2411;47.060;15.064;2023-03-23T10:58:49;18.20;1.00
4795;DHT22;2411;47.060;15.064;2023-03-23T11:01:18;18.20;1.00
4795;DHT22;2411;47.060;15.064;2023-03-23T11:03:48;18.10;1.00
4795;DHT22;2411;47.060;15.064;2023-03-23T11:06:28;18.10;1.00
4795;DHT22;2411;47.060;15.064;2023-03-23T11:11:42;17.90;1.00
4795;DHT22;2411;47.060;15.064;2023-03-23T11:14:28;17.90;1.00
4795;DHT22;2411;47.060;15.064;2023-03-23T11:16:56;17.70;1.00
4795;DHT22;2411;47.060;15.064;2023-03-23T11:19:31;17.70;1.00
4795;DHT22;2411;47.060;15.064;2023-03-23T11:24:44;17.70;1.00
4795;DHT22;2411;47.060;15.064;2023-03-23T11:27:11;18.00;1.00
4795;DHT22;2411;47.060;15.064;2023-03-23T11:30:10;18.20;1.00
4795;DHT22;2411;47.060;15.064;2023-03-23T11:32:37;18.50;1.00
4795;DHT22;2411;47.060;15.064;2023-03-23T11:35:05;18.60;1.00
4795;DHT22;2411;47.060;15.064;2023-03-23T11:37:54;18.80;1.00
4795;DHT22;2411;47.060;15.064;2023-03-23T11:40:24;19.00;1.00
4795;DHT22;2411;47.060;15.064;2023-03-23T11:43:00;18.80;1.00
4795;DHT22;2411;47.060;15.064;2023-03-23T11:45:34;18.80;1.00
4795;DHT22;2411;47.060;15.064;2023-03-23T11:51:17;18.90;1.00
4795;DHT22;2411;47.060;15.064;2023-03-23T11:53:54;18.90;1.00
4795;DHT22;2411;47.060;15.064;2023-03-23T11:56:42;19.30;1.00
4795;DHT22;2411;47.060;15.064;2023-03-23T11:59:17;19.40;1.00
4795;DHT22;2411;47.060;15.064;2023-03-23T12:01:54;19.30;1.00
4795;DHT22;2411;47.060;15.064;2023-03-23T12:10:04;19.40;1.00
4795;DHT22;2411;47.060;15.064;2023-03-23T12:12:40;19.50;1.00
4795;DHT22;2411;47.060;15.064;2023-03-23T12:20:57;19.80;1.00
4795;DHT22;2411;47.060;15.064;2023-03-23T12:23:39;19.90;1.00
4795;DHT22;2411;47.060;15.064;2023-03-23T12:26:17;19.80;1.00
4795;DHT22;2411;47.060;15.064;2023-03-23T12:28:59;19.90;1.00
4795;DHT22;2411;47.060;15.064;2023-03-23T12:34:47;20.00;1.00
4795;DHT22;2411;47.060;15.064;2023-03-23T12:40:19;20.70;1.00
4795;DHT22;2411;47.060;15.064;2023-03-23T12:48:13;20.60;1.00
4795;DHT22;2411;47.060;15.064;2023-03-23T12:51:03;20.40;1.00
4795;DHT22;2411;47.060;15.064;2023-03-23T12:53:44;20.30;1.00
4795;DHT22;2411;47.060;15.064;2023-03-23T13:01:35;19.70;1.00
4795;DHT22;2411;47.060;15.064;2023-03-23T13:06:44;19.50;1.00
4795;DHT22;2411;47.060;15.064;2023-03-23T13:09:35;19.50;1.00
4795;DHT22;2411;47.060;15.064;2023-03-23T13:12:03;19.80;1.00
4795;DHT22;2411;47.060;15.064;2023-03-23T13:25:54;19.50;1.00
4795;DHT22;2411;47.060;15.064;2023-03-23T13:28:30;19.60;1.00
4795;DHT22;2411;47.060;15.064;2023-03-23T13:30:59;19.60;1.00
4795;DHT22;2411;47.060;15.064;2023-03-23T13:33:32;19.80;1.00
4795;DHT22;2411;47.060;15.064;2023-03-23T13:36:13;19.90;1.00
4795;DHT22;2411;47.060;15.064;2023-03-23T13:38:47;19.80;1.00
4795;DHT22;2411;47.060;15.064;2023-03-23T13:41:16;19.90;1.00
4795;DHT22;2411;47.060;15.064;2023-03-23T13:43:43;19.90;1.00
4795;DHT22;2411;47.060;15.064;2023-03-23T13:48:44;19.50;1.00
4795;DHT22;2411;47.060;15.064;2023-03-23T14:01:54;20.10;1.00
4795;DHT22;2411;47.060;15.064;2023-03-23T14:04:21;20.20;1.00
4795;DHT22;2411;47.060;15.064;2023-03-23T14:06:50;20.10;1.00
4795;DHT22;2411;47.060;15.064;2023-03-23T14:09:33;20.20;1.00
4795;DHT22;2411;47.060;15.064;2023-03-23T14:12:16;19.90;1.00
4795;DHT22;2411;47.060;15.064;2023-03-23T14:14:49;19.90;1.00
4795;DHT22;2411;47.060;15.064;2023-03-23T14:17:22;19.90;1.00
4795;DHT22;2411;47.060;15.064;2023-03-23T14:19:51;20.10;1.00
4795;DHT22;2411;47.060;15.064;2023-03-23T14:22:27;20.30;1.00
4795;DHT22;2411;47.060;15.064;2023-03-23T14:25:12;20.50;1.00
4795;DHT22;2411;47.060;15.064;2023-03-23T14:27:39;20.30;1.00
4795;DHT22;2411;47.060;15.064;2023-03-23T14:30:13;20.30;1.00
4795;DHT22;2411;47.060;15.064;2023-03-23T14:32:39;20.50;1.00
4795;DHT22;2411;47.060;15.064;2023-03-23T14:35:12;20.70;1.00
4795;DHT22;2411;47.060;15.064;2023-03-23T14:37:39;20.90;1.00
4795;DHT22;2411;47.060;15.064;2023-03-23T14:40:13;21.10;1.00
4795;DHT22;2411;47.060;15.064;2023-03-23T14:42:40;21.20;1.00
4795;DHT22;2411;47.060;15.064;2023-03-23T14:45:10;21.20;1.00
4795;DHT22;2411;47.060;15.064;2023-03-23T14:47:43;21.10;1.00
4795;DHT22;2411;47.060;15.064;2023-03-23T14:55:53;20.70;1.00
4795;DHT22;2411;47.060;15.064;2023-03-23T14:58:22;20.50;1.00
4795;DHT22;2411;47.060;15.064;2023-03-23T15:01:03;20.40;1.00
4795;DHT22;2411;47.060;15.064;2023-03-23T15:03:35;20.30;1.00
4795;DHT22;2411;47.060;15.064;2023-03-23T15:06:08;20.30;1.00
4795;DHT22;2411;47.060;15.064;2023-03-23T15:08:36;20.20;1.00
4795;DHT22;2411;47.060;15.064;2023-03-23T15:11:20;20.20;1.00
4795;DHT22;2411;47.060;15.064;2023-03-23T15:13:49;20.10;1.00
4795;DHT22;2411;47.060;15.064;2023-03-23T15:16:22;20.20;1.00
4795;DHT22;2411;47.060;15.064;2023-03-23T15:18:51;20.10;1.00
4795;DHT22;2411;47.060;15.064;2023-03-23T15:21:32;20.10;1.00
4795;DHT22;2411;47.060;15.064;2023-03-23T15:24:00;20.00;1.00
4795;DHT22;2411;47.060;15.064;2023-03-23T15:26:34;20.00;1.00
4795;DHT22;2411;47.060;15.064;2023-03-23T15:31:53;19.90;1.00
4795;DHT22;2411;47.060;15.064;2023-03-23T15:34:35;19.70;1.00
4795;DHT22;2411;47.060;15.064;2023-03-23T15:39:45;19.60;1.00
4795;DHT22;2411;47.060;15.064;2023-03-23T15:42:32;19.60;1.00
4795;DHT22;2411;47.060;15.064;2023-03-23T15:47:44;19.50;1.00
4795;DHT22;2411;47.060;15.064;2023-03-23T15:50:32;19.40;1.00
4795;DHT22;2411;47.060;15.064;2023-03-23T15:52:58;19.40;1.00
4795;DHT22;2411;47.060;15.064;2023-03-23T15:55:34;19.30;1.00
4795;DHT22;2411;47.060;15.064;2023-03-23T15:58:10;19.20;1.00
4795;DHT22;2411;47.060;15.064;2023-03-23T16:00:38;19.20;1.00
4795;DHT22;2411;47.060;15.064;2023-03-23T16:03:08;19.10;1.00
4795;DHT22;2411;47.060;15.064;2023-03-23T16:05:38;19.00;1.00
4795;DHT22;2411;47.060;15.064;2023-03-23T16:08:09;19.00;1.00
4795;DHT22;2411;47.060;15.064;2023-03-23T16:10:37;19.00;1.00
4795;DHT22;2411;47.060;15.064;2023-03-23T16:13:04;19.00;1.00
4795;DHT22;2411;47.060;15.064;2023-03-23T16:15:32;19.00;1.00
4795;DHT22;2411;47.060;15.064;2023-03-23T16:17:59;18.90;1.00
4795;DHT22;2411;47.060;15.064;2023-03-23T16:20:28;18.90;1.00
4795;DHT22;2411;47.060;15.064;2023-03-23T16:22:56;18.80;1.00
4795;DHT22;2411;47.060;15.064;2023-03-23T16:25:23;18.80;1.00
4795;DHT22;2411;47.060;15.064;2023-03-23T16:27:50;18.80;1.00
4795;DHT22;2411;47.060;15.064;2023-03-23T16:30:23;18.70;1.00
4795;DHT22;2411;47.060;15.064;2023-03-23T16:32:51;18.70;1.00
4795;DHT22;2411;47.060;15.064;2023-03-23T16:35:23;18.70;1.00
4795;DHT22;2411;47.060;15.064;2023-03-23T16:37:53;18.80;1.00
4795;DHT22;2411;47.060;15.064;2023-03-23T16:40:37;18.60;1.00
4795;DHT22;2411;47.060;15.064;2023-03-23T16:43:04;18.40;1.00
4795;DHT22;2411;47.060;15.064;2023-03-23T16:45:39;18.20;1.00
4795;DHT22;2411;47.060;15.064;2023-03-23T16:48:11;18.00;1.00
4795;DHT22;2411;47.060;15.064;2023-03-23T16:50:39;17.70;1.00
4795;DHT22;2411;47.060;15.064;2023-03-23T16:53:07;17.40;1.00
4795;DHT22;2411;47.060;15.064;2023-03-23T16:55:35;17.20;1.00
4795;DHT22;2411;47.060;15.064;2023-03-23T16:58:03;16.90;1.00
4795;DHT22;2411;47.060;15.064;2023-03-23T17:00:46;16.50;1.00
4795;DHT22;2411;47.060;15.064;2023-03-23T17:03:13;16.10;1.00
4795;DHT22;2411;47.060;15.064;2023-03-23T17:05:42;16.00;1.00
4795;DHT22;2411;47.060;15.064;2023-03-23T17:08:11;15.90;1.00
4795;DHT22;2411;47.060;15.064;2023-03-23T17:10:39;15.70;1.00
4795;DHT22;2411;47.060;15.064;2023-03-23T17:13:07;15.50;1.00
4795;DHT22;2411;47.060;15.064;2023-03-23T17:15:39;15.50;1.00
4795;DHT22;2411;47.060;15.064;2023-03-23T17:18:09;15.40;1.00
4795;DHT22;2411;47.060;15.064;2023-03-23T17:20:36;15.30;1.00
4795;DHT22;2411;47.060;15.064;2023-03-23T17:23:04;15.20;1.00
4795;DHT22;2411;47.060;15.064;2023-03-23T17:25:31;15.30;1.00
4795;DHT22;2411;47.060;15.064;2023-03-23T17:27:59;15.20;1.00
4795;DHT22;2411;47.060;15.064;2023-03-23T17:30:32;15.20;1.00
4795;DHT22;2411;47.060;15.064;2023-03-23T17:32:59;15.10;1.00
4795;DHT22;2411;47.060;15.064;2023-03-23T17:35:26;14.90;1.00
4795;DHT22;2411;47.060;15.064;2023-03-23T17:37:53;14.90;1.00
4795;DHT22;2411;47.060;15.064;2023-03-23T17:40:20;14.70;1.00
4795;DHT22;2411;47.060;15.064;2023-03-23T17:42:48;14.70;1.00
4795;DHT22;2411;47.060;15.064;2023-03-23T17:45:15;14.60;1.00
4795;DHT22;2411;47.060;15.064;2023-03-23T17:47:42;14.50;1.00
4795;DHT22;2411;47.060;15.064;2023-03-23T17:50:10;14.50;1.00
4795;DHT22;2411;47.060;15.064;2023-03-23T17:52:39;14.40;1.00
4795;DHT22;2411;47.060;15.064;2023-03-23T17:55:07;14.40;1.00
4795;DHT22;2411;47.060;15.064;2023-03-23T17:57:34;14.30;1.00
4795;DHT22;2411;47.060;15.064;2023-03-23T18:00:03;14.10;1.00
4795;DHT22;2411;47.060;15.064;2023-03-23T18:02:34;14.10;1.00
4795;DHT22;2411;47.060;15.064;2023-03-23T18:05:02;14.10;1.00
4795;DHT22;2411;47.060;15.064;2023-03-23T18:07:29;14.10;1.00
4795;DHT22;2411;47.060;15.064;2023-03-23T18:09:58;13.90;1.00
4795;DHT22;2411;47.060;15.064;2023-03-23T18:12:26;13.80;1.00
4795;DHT22;2411;47.060;15.064;2023-03-23T18:14:57;13.70;1.00
4795;DHT22;2411;47.060;15.064;2023-03-23T18:17:25;13.70;1.00
4795;DHT22;2411;47.060;15.064;2023-03-23T18:19:53;13.60;1.00
4795;DHT22;2411;47.060;15.064;2023-03-23T18:22:20;13.50;1.00
4795;DHT22;2411;47.060;15.064;2023-03-23T18:24:48;13.50;1.00
4795;DHT22;2411;47.060;15.064;2023-03-23T18:27:15;13.50;1.00
4795;DHT22;2411;47.060;15.064;2023-03-23T18:29:43;13.40;1.00